Wetterdaten: Juni 2012
Datum Temp Feuchte Luftdruck Regen Wind Richtung Sonnenschein UV Solar Windben
01.06.2012 10,7 C 88 % 1015,6 hPa 3,4 l/m 0,6 km/h N-NW 0,67 h 1,8 UV-I 144 W/m 6,8 km/h
02.06.2012 9,9 C 78 % 1014,8 hPa 0,0 l/m 0,3 km/h NW 5,50 h 2,4 UV-I 287 W/m 4,0 km/h
03.06.2012 7,7 C 96 % 1008,1 hPa 9,8 l/m 0,1 km/h N-NO 0,00 h 0,7 UV-I 67 W/m 2,0 km/h
04.06.2012 8,4 C 95 % 1009,1 hPa 14,8 l/m 7,6 km/h N 0,83 h 1,5 UV-I 148 W/m 16,5 km/h
05.06.2012 8,4 C 85 % 1016,7 hPa 0,8 l/m 1,3 km/h NW 3,83 h 2,2 UV-I 250 W/m 7,2 km/h
06.06.2012 11,3 C 92 % 1007,2 hPa 2,8 l/m 2,3 km/h S-SO 0,75 h 1,2 UV-I 138 W/m 9,6 km/h
07.06.2012 16,4 C 85 % 1003,1 hPa 0,6 l/m 4,6 km/h S-SO 5,42 h 3,2 UV-I 331 W/m 15,3 km/h
08.06.2012 15,0 C 79 % 1006,3 hPa 0,8 l/m 2,6 km/h S-SW 5,83 h 3,0 UV-I 347 W/m 8,9 km/h
09.06.2012 12,9 C 69 % 1012,0 hPa 0,0 l/m 5,5 km/h S-SW 5,58 h 2,6 UV-I 321 W/m 16,1 km/h
10.06.2012 13,3 C 73 % 1009,2 hPa 0,0 l/m 2,3 km/h S-SW 10,08 h 3,1 UV-I 412 W/m 6,9 km/h
11.06.2012 15,1 C 78 % 1002,5 hPa 0,0 l/m 2,0 km/h S-SO 7,17 h 3,0 UV-I 346 W/m 7,7 km/h
12.06.2012 13,6 C 88 % 1003,6 hPa 0,4 l/m 1,4 km/h N-NW 1,17 h 2,0 UV-I 192 W/m 4,8 km/h
13.06.2012 11,5 C 83 % 1014,1 hPa 0,0 l/m 0,6 km/h N-NW 1,50 h 1,5 UV-I 177 W/m 6,0 km/h
14.06.2012 10,6 C 89 % 1018,8 hPa 0,4 l/m 0,1 km/h S 1,75 h 1,6 UV-I 169 W/m 1,2 km/h
15.06.2012 14,0 C 92 % 1015,0 hPa 1,8 l/m 6,1 km/h S-SO 2,25 h 1,6 UV-I 180 W/m 10,1 km/h
16.06.2012 13,9 C 91 % 1014,4 hPa 4,4 l/m 9,6 km/h S 0,58 h 1,4 UV-I 111 W/m 16,1 km/h
17.06.2012 15,3 C 78 % 1020,0 hPa 0,0 l/m 2,7 km/h S-SW 8,25 h 3,3 UV-I 371 W/m 8,1 km/h
18.06.2012 18,1 C 74 % 1015,4 hPa 0,0 l/m 5,5 km/h S-SO 7,33 h 3,3 UV-I 376 W/m 16,5 km/h
19.06.2012 16,7 C 85 % 1018,1 hPa 0,0 l/m 0,4 km/h N-NO 2,67 h 2,2 UV-I 229 W/m 2,8 km/h
20.06.2012 15,3 C 97 % 1013,8 hPa 7,4 l/m 0,8 km/h N-NO 0,00 h 1,1 UV-I 76 W/m 4,4 km/h
21.06.2012 15,3 C 95 % 1010,6 hPa 0,2 l/m 6,3 km/h S-SO 0,08 h 1,8 UV-I 131 W/m 12,5 km/h
22.06.2012 15,2 C 74 % 1017,1 hPa 1,8 l/m 2,0 km/h S-SW 5,33 h 2,8 UV-I 322 W/m 8,0 km/h
23.06.2012 15,4 C 71 % 1021,3 hPa 0,2 l/m 4,4 km/h S-SW 5,67 h 2,5 UV-I 295 W/m 11,7 km/h
24.06.2012 13,9 C 85 % 1010,7 hPa 9,4 l/m 6,9 km/h S 2,83 h 1,8 UV-I 169 W/m 21,3 km/h
25.06.2012 13,6 C 84 % 1014,0 hPa 1,6 l/m 4,2 km/h NW 2,83 h 2,6 UV-I 245 W/m 22,9 km/h
26.06.2012 13,4 C 82 % 1020,4 hPa 0,0 l/m 1,9 km/h NW 4,67 h 2,3 UV-I 247 W/m 10,4 km/h
27.06.2012 15,9 C 96 % 1016,5 hPa 10,2 l/m 0,9 km/h S-SW 1,33 h 1,7 UV-I 138 W/m 5,6 km/h
28.06.2012 21,5 C 79 % 1009,6 hPa 0,0 l/m 4,3 km/h S-SO 8,75 h 4,1 UV-I 407 W/m 6,4 km/h
29.06.2012 20,5 C 88 % 1008,3 hPa 4,0 l/m 2,6 km/h S 5,75 h 3,0 UV-I 273 W/m 9,3 km/h
30.06.2012 18,9 C 82 % 1011,6 hPa 0,0 l/m 1,4 km/h S 7,42 h 3,5 UV-I 363 W/m 5,6 km/h
Min-Datum 03.06.12 10.06.12 07.06.12 19 Tage 01.06.12 - - - - 01.06.12
Min-Zeit 03:55 19:15 21:05 - 20:50 - - - - 20:50
Minimum 4,8 C 46 % 1000,4 hPa - 0,0 km/h - - - - 0,0 km/h
Max-Datum 29.06.12 15.06.12 23.06.12 04.06.12 09.06.12 - 10.06.12 28.06.12 02.06.12 18.06.12
Max-Zeit 13:45 03:20 11:55 17:15 10:45 - 20:15 13:50 12:45 10:55
Maximum 27,3 C 100 % 1022,1 hPa 14,8 l/m 28,8 km/h
S-SW
- 10,00 h 8,2 UV-I 1339 W/m 48,3 km/h
SO
Durchschnitt 14,1 C 84 % 1012,6 hPa #74,8 l/m 3,0 km/h S #115:50 h 2,3 UV-I 242 W/m 9,5 km/h

Durchschnitt Minimum Temp.9,6 C
Durchschnitt Maximum Temp.18,3 C